Time;durP1;ratioP1;P1;durP2;ratioP2;P2;SDS_P1;SDS_P2;PMS_P1;PMS_P2;Temp;Humidity;BMP_temperature;BMP_pressure;BME280_temperature;BME280_humidity;BME280_pressure;Samples;Min_cycle;Max_cycle;Signal;HPM_P1;HPM_P2
2023/07/31 00:01:07;;;;;;;7.87;6.57;;;;;;;;;;5049768;28;20556;-75
2023/07/31 00:03:33;;;;;;;6.77;5.40;;;;;;;;;;5054940;28;20477;-76
2023/07/31 00:05:59;;;;;;;11.57;6.90;;;;;;;;;;5048552;28;20433;-75
2023/07/31 00:08:26;;;;;;;6.17;5.70;;;;;;;;;;5051317;28;20906;-75
2023/07/31 00:10:53;;;;;;;6.57;5.90;;;;;;;;;;5051808;28;20706;-75
2023/07/31 00:13:19;;;;;;;7.33;5.40;;;;;;;;;;5055257;28;21238;-76
2023/07/31 00:15:45;;;;;;;8.13;5.80;;;;;;;;;;5052901;28;20431;-75
2023/07/31 00:18:11;;;;;;;9.47;5.83;;;;;;;;;;5051947;28;20437;-76
2023/07/31 00:20:37;;;;;;;8.27;5.67;;;;;;;;;;5050476;28;20523;-76
2023/07/31 00:23:03;;;;;;;14.87;5.27;;;;;;;;;;5054779;28;21261;-76
2023/07/31 00:25:29;;;;;;;7.37;5.90;;;;;;;;;;5054459;28;20441;-76
2023/07/31 00:27:54;;;;;;;11.37;6.07;;;;;;;;;;5049981;28;20445;-76
2023/07/31 00:30:22;;;;;;;8.07;5.27;;;;;;;;;;5053532;28;20442;-76
2023/07/31 00:32:48;;;;;;;6.50;5.10;;;;;;;;;;5046986;28;20484;-75
2023/07/31 00:35:14;;;;;;;8.63;5.43;;;;;;;;;;5052264;28;20850;-75
2023/07/31 00:37:40;;;;;;;7.67;4.43;;;;;;;;;;5050751;28;20496;-75
2023/07/31 00:40:06;;;;;;;9.07;6.40;;;;;;;;;;5055875;28;21204;-75
2023/07/31 00:42:32;;;;;;;7.90;5.40;;;;;;;;;;5046544;28;20445;-76
2023/07/31 00:44:58;;;;;;;12.87;5.90;;;;;;;;;;5054788;28;20540;-76
2023/07/31 00:47:24;;;;;;;8.50;6.17;;;;;;;;;;5052046;28;20440;-76
2023/07/31 00:49:50;;;;;;;7.47;5.50;;;;;;;;;;5055472;28;20490;-75
2023/07/31 00:52:16;;;;;;;7.13;6.37;;;;;;;;;;5053136;28;20453;-76
2023/07/31 00:54:43;;;;;;;6.73;5.63;;;;;;;;;;5049983;28;20428;-75
2023/07/31 00:57:09;;;;;;;9.57;6.23;;;;;;;;;;5048410;28;20469;-75
2023/07/31 00:59:35;;;;;;;5.20;4.70;;;;;;;;;;5056278;28;20452;-75
2023/07/31 01:02:00;;;;;;;8.73;5.60;;;;;;;;;;5046706;28;20457;-75
2023/07/31 01:04:27;;;;;;;8.60;5.00;;;;;;;;;;5054360;28;21196;-75
2023/07/31 01:06:58;;;;;;;6.20;4.70;;;;;;;;;;5052804;28;20444;-75
2023/07/31 01:09:28;;;;;;;8.70;5.60;;;;;;;;;;5049139;28;20523;-75
2023/07/31 01:11:56;;;;;;;13.60;5.70;;;;;;;;;;5050349;28;20433;-76
2023/07/31 01:14:23;;;;;;;9.77;5.50;;;;;;;;;;5053460;28;21077;-76
2023/07/31 01:16:49;;;;;;;6.80;6.07;;;;;;;;;;5036349;28;20472;-76
2023/07/31 01:19:15;;;;;;;7.33;6.20;;;;;;;;;;5055193;28;20491;-76
2023/07/31 01:21:53;;;;;;;8.37;4.80;;;;;;;;;;5050214;28;20442;-76
2023/07/31 01:24:34;;;;;;;5.27;4.20;;;;;;;;;;5047338;28;20452;-77
2023/07/31 01:27:18;;;;;;;9.00;4.30;;;;;;;;;;5049241;28;20908;-76
2023/07/31 01:29:49;;;;;;;8.43;5.23;;;;;;;;;;5052116;28;20418;-76
2023/07/31 01:32:15;;;;;;;7.00;4.63;;;;;;;;;;5037962;28;20443;-76
2023/07/31 01:34:42;;;;;;;7.53;5.00;;;;;;;;;;5048846;28;20434;-75
2023/07/31 01:37:08;;;;;;;4.57;4.13;;;;;;;;;;5054643;28;20460;-75
2023/07/31 01:39:34;;;;;;;4.50;4.13;;;;;;;;;;5046012;28;20441;-77
2023/07/31 01:42:00;;;;;;;4.87;4.47;;;;;;;;;;5052957;28;20452;-75
2023/07/31 01:44:26;;;;;;;5.40;3.80;;;;;;;;;;5048369;28;21084;-75
2023/07/31 01:46:52;;;;;;;6.90;4.43;;;;;;;;;;5035320;28;21181;-76
2023/07/31 01:49:18;;;;;;;4.30;3.97;;;;;;;;;;5048069;28;20441;-75
2023/07/31 01:51:44;;;;;;;8.70;6.40;;;;;;;;;;5053531;28;20557;-75
2023/07/31 01:54:11;;;;;;;5.57;4.67;;;;;;;;;;5049797;28;20429;-74
2023/07/31 01:56:36;;;;;;;5.80;4.07;;;;;;;;;;5049859;28;20473;-76
2023/07/31 02:02:06;;;;;;;6.20;4.87;;;;;;;;;;5036132;28;20987;-75
2023/07/31 02:04:32;;;;;;;9.70;4.40;;;;;;;;;;5052605;28;20429;-76
2023/07/31 02:06:58;;;;;;;4.27;4.03;;;;;;;;;;5048006;28;20804;-76
2023/07/31 02:09:24;;;;;;;5.10;4.70;;;;;;;;;;5056690;28;20523;-76
2023/07/31 02:11:50;;;;;;;9.40;5.13;;;;;;;;;;5047489;28;21208;-74
2023/07/31 02:14:16;;;;;;;8.20;4.43;;;;;;;;;;5051685;28;20426;-75
2023/07/31 02:16:42;;;;;;;4.80;4.27;;;;;;;;;;5042268;28;20556;-75
2023/07/31 02:19:08;;;;;;;10.30;4.57;;;;;;;;;;5051450;28;20498;-74
2023/07/31 02:21:34;;;;;;;8.43;4.60;;;;;;;;;;5048407;28;20410;-75
2023/07/31 02:24:00;;;;;;;6.57;5.00;;;;;;;;;;5053210;28;20499;-75
2023/07/31 02:26:26;;;;;;;6.23;4.83;;;;;;;;;;5053814;28;20433;-75
2023/07/31 02:28:52;;;;;;;4.80;4.40;;;;;;;;;;5040863;28;20437;-75
2023/07/31 02:31:18;;;;;;;5.93;5.33;;;;;;;;;;5057660;28;20530;-75
2023/07/31 02:33:44;;;;;;;7.80;4.90;;;;;;;;;;5049268;28;20437;-75
2023/07/31 02:36:10;;;;;;;9.27;5.00;;;;;;;;;;5050234;28;20875;-76
2023/07/31 02:38:36;;;;;;;5.67;5.20;;;;;;;;;;5047056;28;20519;-76
2023/07/31 02:41:02;;;;;;;9.43;5.37;;;;;;;;;;5046692;28;20433;-75
2023/07/31 02:43:28;;;;;;;8.10;5.00;;;;;;;;;;5045371;28;20494;-75
2023/07/31 02:45:54;;;;;;;7.60;4.93;;;;;;;;;;5053071;28;20454;-75
2023/07/31 02:48:20;;;;;;;8.53;5.33;;;;;;;;;;5046630;28;20449;-75
2023/07/31 02:50:47;;;;;;;8.63;4.97;;;;;;;;;;5054452;28;20467;-75
2023/07/31 02:53:13;;;;;;;8.83;4.70;;;;;;;;;;5028189;28;20470;-75
2023/07/31 02:55:40;;;;;;;8.27;4.50;;;;;;;;;;5050726;28;20471;-76
2023/07/31 02:58:06;;;;;;;6.73;4.73;;;;;;;;;;5048087;28;20474;-75
2023/07/31 03:00:32;;;;;;;6.03;5.10;;;;;;;;;;5053098;28;20428;-76
2023/07/31 03:02:58;;;;;;;7.73;5.30;;;;;;;;;;5050483;28;20476;-75
2023/07/31 03:05:24;;;;;;;11.70;5.27;;;;;;;;;;5055068;28;20425;-75
2023/07/31 03:07:50;;;;;;;9.53;5.23;;;;;;;;;;5049410;28;20433;-76
2023/07/31 03:10:16;;;;;;;5.83;4.97;;;;;;;;;;5053836;28;20428;-75
2023/07/31 03:12:42;;;;;;;7.27;4.60;;;;;;;;;;5046004;28;20433;-74
2023/07/31 03:15:08;;;;;;;7.30;5.20;;;;;;;;;;5052447;28;20432;-75
2023/07/31 03:17:34;;;;;;;5.27;4.90;;;;;;;;;;5045706;28;20464;-75
2023/07/31 03:20:00;;;;;;;10.90;5.20;;;;;;;;;;5051858;28;20428;-75
2023/07/31 03:22:26;;;;;;;9.77;5.47;;;;;;;;;;5052079;28;21187;-75
2023/07/31 03:24:52;;;;;;;11.17;5.00;;;;;;;;;;5052384;28;20920;-76
2023/07/31 03:27:19;;;;;;;4.47;4.13;;;;;;;;;;5048864;28;20441;-75
2023/07/31 03:29:45;;;;;;;7.27;5.53;;;;;;;;;;5053096;28;20432;-75
2023/07/31 03:32:11;;;;;;;6.13;4.67;;;;;;;;;;5045452;28;20445;-75
2023/07/31 03:34:37;;;;;;;7.10;5.07;;;;;;;;;;5052961;28;20444;-76
2023/07/31 03:37:04;;;;;;;8.23;4.40;;;;;;;;;;5045752;28;20477;-78
2023/07/31 03:39:31;;;;;;;6.40;4.87;;;;;;;;;;5055020;28;20479;-76
2023/07/31 03:41:57;;;;;;;5.80;4.90;;;;;;;;;;5047500;28;20449;-74
2023/07/31 03:44:23;;;;;;;8.80;5.10;;;;;;;;;;5047112;28;20472;-75
2023/07/31 03:46:49;;;;;;;8.30;4.70;;;;;;;;;;5045343;28;20510;-75
2023/07/31 03:49:15;;;;;;;4.87;4.40;;;;;;;;;;5045903;28;20461;-75
2023/07/31 03:51:41;;;;;;;8.40;5.13;;;;;;;;;;5048419;28;20505;-75
2023/07/31 03:54:07;;;;;;;4.60;4.20;;;;;;;;;;5046403;28;20501;-75
2023/07/31 03:56:33;;;;;;;8.30;5.30;;;;;;;;;;5029415;28;20457;-75
2023/07/31 03:59:00;;;;;;;5.30;4.90;;;;;;;;;;5048099;28;20425;-76
2023/07/31 04:01:27;;;;;;;5.07;4.70;;;;;;;;;;5046178;28;20749;-75
2023/07/31 04:03:53;;;;;;;9.33;5.87;;;;;;;;;;5053318;28;21028;-76
2023/07/31 04:06:19;;;;;;;6.53;5.10;;;;;;;;;;5047210;28;20425;-76
2023/07/31 04:08:45;;;;;;;8.87;5.20;;;;;;;;;;5049189;28;20421;-75
2023/07/31 04:11:12;;;;;;;9.57;5.60;;;;;;;;;;5047601;28;20429;-76
2023/07/31 04:13:38;;;;;;;5.63;5.10;;;;;;;;;;5032053;28;20519;-77
2023/07/31 04:16:04;;;;;;;6.63;5.63;;;;;;;;;;5051345;28;20424;-76
2023/07/31 04:18:31;;;;;;;11.60;5.40;;;;;;;;;;5038767;28;20508;-75
2023/07/31 04:20:58;;;;;;;6.10;4.83;;;;;;;;;;5053702;28;20425;-76
2023/07/31 04:23:25;;;;;;;6.00;5.40;;;;;;;;;;5049129;28;20524;-76
2023/07/31 04:25:52;;;;;;;4.70;4.23;;;;;;;;;;5059523;28;20455;-75
2023/07/31 04:28:18;;;;;;;7.90;5.63;;;;;;;;;;5053500;28;20956;-75
2023/07/31 04:30:44;;;;;;;6.13;5.50;;;;;;;;;;5051515;28;20447;-75
2023/07/31 04:33:10;;;;;;;5.67;5.13;;;;;;;;;;5046947;28;20470;-76
2023/07/31 04:35:36;;;;;;;7.30;5.00;;;;;;;;;;5054420;28;20803;-75
2023/07/31 04:38:02;;;;;;;9.73;5.27;;;;;;;;;;5049861;28;20504;-75
2023/07/31 04:40:28;;;;;;;5.83;5.10;;;;;;;;;;5055891;28;20430;-74
2023/07/31 04:42:54;;;;;;;6.97;6.30;;;;;;;;;;5053487;28;20452;-75
2023/07/31 04:45:20;;;;;;;7.57;6.83;;;;;;;;;;5054135;28;20515;-75
2023/07/31 04:47:46;;;;;;;5.83;5.33;;;;;;;;;;5047313;28;20429;-76
2023/07/31 04:53:15;;;;;;;11.83;5.70;;;;;;;;;;5054062;28;20401;-75
2023/07/31 04:55:41;;;;;;;6.03;5.27;;;;;;;;;;5052754;28;20426;-75
2023/07/31 04:58:07;;;;;;;10.53;6.23;;;;;;;;;;5049035;28;20483;-76
2023/07/31 05:00:33;;;;;;;6.67;5.90;;;;;;;;;;5057356;28;20429;-76
2023/07/31 05:02:59;;;;;;;10.67;5.00;;;;;;;;;;5048916;28;20479;-74
2023/07/31 05:05:25;;;;;;;6.60;6.07;;;;;;;;;;5054037;28;20518;-76
2023/07/31 05:07:51;;;;;;;11.43;6.30;;;;;;;;;;5046441;28;21161;-75
2023/07/31 05:10:17;;;;;;;9.57;5.80;;;;;;;;;;5051620;28;20444;-76
2023/07/31 05:12:43;;;;;;;8.50;5.90;;;;;;;;;;5057625;28;20457;-76
2023/07/31 05:15:09;;;;;;;6.10;5.60;;;;;;;;;;5053592;28;20435;-75
2023/07/31 05:17:35;;;;;;;5.93;5.43;;;;;;;;;;5056034;28;20461;-76
2023/07/31 05:20:01;;;;;;;7.03;5.67;;;;;;;;;;5046986;28;21070;-76
2023/07/31 05:22:27;;;;;;;7.20;6.30;;;;;;;;;;5052796;28;20395;-75
2023/07/31 05:24:54;;;;;;;7.83;5.80;;;;;;;;;;5049913;28;20796;-75
2023/07/31 05:27:20;;;;;;;7.23;5.50;;;;;;;;;;5050494;28;20397;-75
2023/07/31 05:29:46;;;;;;;6.50;6.00;;;;;;;;;;5048574;28;20433;-75
2023/07/31 05:32:12;;;;;;;9.87;5.20;;;;;;;;;;5052662;28;20690;-75
2023/07/31 05:34:38;;;;;;;6.07;5.60;;;;;;;;;;5052340;28;20551;-75
2023/07/31 05:37:05;;;;;;;7.50;6.20;;;;;;;;;;5049592;28;20495;-75
2023/07/31 05:39:31;;;;;;;10.17;6.80;;;;;;;;;;5028823;28;20863;-76
2023/07/31 05:41:57;;;;;;;7.07;5.47;;;;;;;;;;5046506;28;20512;-76
2023/07/31 05:50:31;;;;;;;9.00;5.53;;;;;;;;;;5056372;28;20454;-75
2023/07/31 05:52:57;;;;;;;7.00;6.50;;;;;;;;;;5048721;28;20433;-75
2023/07/31 05:55:23;;;;;;;6.93;6.17;;;;;;;;;;5048889;28;20487;-76
2023/07/31 05:57:49;;;;;;;6.70;6.30;;;;;;;;;;5045972;28;20473;-75
2023/07/31 06:00:15;;;;;;;8.30;5.73;;;;;;;;;;5050694;28;20524;-74
2023/07/31 06:02:41;;;;;;;6.13;5.63;;;;;;;;;;5049401;28;20460;-75
2023/07/31 06:05:08;;;;;;;7.10;6.40;;;;;;;;;;5051660;28;20418;-74
2023/07/31 06:07:34;;;;;;;7.03;6.37;;;;;;;;;;5035367;28;21726;-77
2023/07/31 06:10:04;;;;;;;6.80;6.13;;;;;;;;;;5053098;28;20440;-77
2023/07/31 06:12:33;;;;;;;5.33;4.97;;;;;;;;;;5045980;28;20433;-77
2023/07/31 06:14:59;;;;;;;6.70;5.73;;;;;;;;;;5043829;28;21203;-77
2023/07/31 06:17:29;;;;;;;7.40;6.70;;;;;;;;;;5051677;28;20599;-77
2023/07/31 06:19:55;;;;;;;6.00;5.40;;;;;;;;;;5048780;28;20959;-77
2023/07/31 06:22:21;;;;;;;7.60;6.77;;;;;;;;;;5051072;28;20524;-76
2023/07/31 06:24:47;;;;;;;6.77;5.93;;;;;;;;;;5050773;28;20437;-77
2023/07/31 06:27:13;;;;;;;7.77;6.23;;;;;;;;;;5050132;28;20824;-77
2023/07/31 06:29:39;;;;;;;6.97;6.33;;;;;;;;;;5048117;28;20433;-77
2023/07/31 06:32:05;;;;;;;7.20;6.70;;;;;;;;;;5048374;28;20975;-78
2023/07/31 06:34:31;;;;;;;8.50;5.80;;;;;;;;;;5046240;28;21415;-76
2023/07/31 06:36:57;;;;;;;6.73;6.23;;;;;;;;;;5052543;28;20450;-78
2023/07/31 06:39:23;;;;;;;7.10;6.40;;;;;;;;;;5048988;28;20409;-77
2023/07/31 06:41:52;;;;;;;7.63;5.53;;;;;;;;;;5050044;28;20400;-78
2023/07/31 06:44:19;;;;;;;5.90;5.33;;;;;;;;;;5045120;28;20438;-76
2023/07/31 06:46:45;;;;;;;6.07;5.60;;;;;;;;;;5051980;28;20424;-77
2023/07/31 06:49:11;;;;;;;7.60;6.90;;;;;;;;;;5046796;28;21147;-76
2023/07/31 06:51:38;;;;;;;6.37;5.80;;;;;;;;;;5048462;28;20409;-77
2023/07/31 06:54:04;;;;;;;7.10;6.50;;;;;;;;;;5050893;28;20461;-76
2023/07/31 06:56:30;;;;;;;6.87;6.07;;;;;;;;;;5041123;28;20534;-75
2023/07/31 06:58:56;;;;;;;6.57;5.87;;;;;;;;;;5048831;28;20421;-77
2023/07/31 07:01:22;;;;;;;13.90;6.87;;;;;;;;;;5048720;28;20582;-75
2023/07/31 07:03:50;;;;;;;12.13;6.17;;;;;;;;;;5033690;28;20457;-77
2023/07/31 07:06:16;;;;;;;6.60;5.93;;;;;;;;;;5028013;28;20471;-75
2023/07/31 07:08:42;;;;;;;6.07;5.47;;;;;;;;;;5049592;28;20437;-76
2023/07/31 07:11:08;;;;;;;5.87;5.27;;;;;;;;;;5046945;28;20502;-76
2023/07/31 07:13:34;;;;;;;6.73;6.30;;;;;;;;;;5048729;28;20861;-76
2023/07/31 07:16:00;;;;;;;7.17;5.77;;;;;;;;;;5033240;28;20448;-76
2023/07/31 07:18:26;;;;;;;6.40;5.70;;;;;;;;;;5050476;28;20429;-78
2023/07/31 07:20:52;;;;;;;6.37;6.00;;;;;;;;;;5026292;28;20488;-78
2023/07/31 07:23:19;;;;;;;5.63;4.97;;;;;;;;;;5057186;28;20920;-77
2023/07/31 07:25:45;;;;;;;5.40;4.90;;;;;;;;;;5048896;28;20460;-78
2023/07/31 07:28:12;;;;;;;5.37;4.97;;;;;;;;;;5052202;28;20447;-76
2023/07/31 07:30:38;;;;;;;5.50;5.00;;;;;;;;;;5044042;28;20441;-77
2023/07/31 07:33:04;;;;;;;6.27;5.80;;;;;;;;;;5048226;28;20988;-75
2023/07/31 07:35:30;;;;;;;5.90;5.43;;;;;;;;;;5052521;28;20453;-75
2023/07/31 07:37:56;;;;;;;5.80;5.30;;;;;;;;;;5052264;28;20468;-76
2023/07/31 07:40:22;;;;;;;11.23;6.00;;;;;;;;;;5047537;28;21025;-75
2023/07/31 07:42:48;;;;;;;6.67;5.90;;;;;;;;;;5050520;28;20517;-77
2023/07/31 07:45:14;;;;;;;5.67;5.30;;;;;;;;;;5048936;28;21128;-77
2023/07/31 07:47:43;;;;;;;5.97;5.00;;;;;;;;;;5046452;28;20436;-78
2023/07/31 07:50:09;;;;;;;8.43;7.20;;;;;;;;;;5046125;28;20457;-76
2023/07/31 07:52:36;;;;;;;5.83;5.33;;;;;;;;;;5058086;28;20455;-79
2023/07/31 07:55:03;;;;;;;7.13;4.93;;;;;;;;;;5049359;28;20490;-76
2023/07/31 07:57:29;;;;;;;5.23;4.73;;;;;;;;;;5056483;28;20457;-77
2023/07/31 07:59:55;;;;;;;5.40;5.10;;;;;;;;;;5044688;28;20467;-77
2023/07/31 08:02:22;;;;;;;5.60;5.10;;;;;;;;;;5054572;28;20940;-76
2023/07/31 08:04:48;;;;;;;5.90;5.50;;;;;;;;;;5050287;28;21026;-76
2023/07/31 08:07:14;;;;;;;5.97;5.50;;;;;;;;;;5049343;28;20441;-76
2023/07/31 08:09:41;;;;;;;5.50;5.00;;;;;;;;;;5050741;28;20982;-76
2023/07/31 08:12:07;;;;;;;7.03;5.03;;;;;;;;;;5054324;28;21026;-77
2023/07/31 08:14:33;;;;;;;4.43;4.23;;;;;;;;;;5052067;28;21019;-76
2023/07/31 08:17:02;;;;;;;4.43;4.10;;;;;;;;;;5047958;28;20564;-75
2023/07/31 08:19:29;;;;;;;4.73;4.30;;;;;;;;;;5033438;28;20536;-77
2023/07/31 08:21:55;;;;;;;4.97;4.50;;;;;;;;;;5027078;28;20432;-76
2023/07/31 08:30:29;;;;;;;4.77;4.40;;;;;;;;;;5040783;28;20486;-76
2023/07/31 08:32:55;;;;;;;4.40;4.10;;;;;;;;;;5051060;28;21185;-77
2023/07/31 08:35:20;;;;;;;5.70;5.20;;;;;;;;;;5048302;28;20429;-76
2023/07/31 08:37:46;;;;;;;4.37;4.07;;;;;;;;;;5035107;28;20469;-77
2023/07/31 08:40:13;;;;;;;5.07;4.77;;;;;;;;;;5046228;28;20436;-76
2023/07/31 08:42:46;;;;;;;4.40;4.20;;;;;;;;;;5053254;28;20842;-76
2023/07/31 08:45:15;;;;;;;5.17;4.73;;;;;;;;;;5047766;28;20496;-75
2023/07/31 08:47:45;;;;;;;3.77;3.53;;;;;;;;;;5052716;28;20500;-75
2023/07/31 08:50:15;;;;;;;3.67;3.33;;;;;;;;;;5049955;28;20465;-76
2023/07/31 08:52:41;;;;;;;7.13;4.43;;;;;;;;;;5057031;28;20421;-78
2023/07/31 08:55:07;;;;;;;3.90;3.70;;;;;;;;;;5049573;28;20810;-77
2023/07/31 08:57:35;;;;;;;4.60;4.20;;;;;;;;;;5049990;28;20464;-76
2023/07/31 09:00:01;;;;;;;4.93;4.63;;;;;;;;;;5051982;28;20445;-76
2023/07/31 09:02:31;;;;;;;6.30;4.80;;;;;;;;;;5053225;28;20437;-77
2023/07/31 09:04:57;;;;;;;4.53;4.37;;;;;;;;;;5047829;28;20469;-77
2023/07/31 09:07:24;;;;;;;4.63;4.23;;;;;;;;;;5050045;28;20429;-76
2023/07/31 09:09:50;;;;;;;4.73;4.13;;;;;;;;;;5046989;28;21029;-77
2023/07/31 09:12:16;;;;;;;4.60;4.23;;;;;;;;;;5053880;28;20425;-79
2023/07/31 09:14:42;;;;;;;4.40;4.00;;;;;;;;;;5050261;28;20437;-77
2023/07/31 09:17:08;;;;;;;4.07;3.90;;;;;;;;;;5048902;28;20960;-76
2023/07/31 09:19:38;;;;;;;4.43;4.13;;;;;;;;;;5047828;28;20444;-76
2023/07/31 09:22:05;;;;;;;4.77;4.53;;;;;;;;;;5048679;28;20490;-78
2023/07/31 09:24:32;;;;;;;3.37;3.17;;;;;;;;;;5052452;28;20443;-77
2023/07/31 09:26:58;;;;;;;4.23;3.93;;;;;;;;;;5046958;28;20993;-77
2023/07/31 09:29:26;;;;;;;3.93;3.73;;;;;;;;;;5055215;28;21021;-77
2023/07/31 09:31:52;;;;;;;3.77;3.47;;;;;;;;;;5050499;28;20433;-75
2023/07/31 09:34:18;;;;;;;4.83;4.37;;;;;;;;;;5056043;28;20435;-75
2023/07/31 09:36:48;;;;;;;3.53;3.33;;;;;;;;;;5047812;28;20843;-78
2023/07/31 09:39:15;;;;;;;4.20;3.90;;;;;;;;;;5051816;28;20487;-77
2023/07/31 09:41:48;;;;;;;3.97;3.87;;;;;;;;;;5033169;28;21219;-77
2023/07/31 09:44:16;;;;;;;3.13;3.00;;;;;;;;;;5034516;28;20453;-77
2023/07/31 09:46:42;;;;;;;3.07;2.87;;;;;;;;;;5048327;28;20527;-76
2023/07/31 09:49:12;;;;;;;3.20;3.10;;;;;;;;;;5049664;28;20484;-76
2023/07/31 09:51:39;;;;;;;3.20;3.10;;;;;;;;;;5044937;28;20550;-76
2023/07/31 09:54:15;;;;;;;3.60;3.50;;;;;;;;;;5027479;28;20883;-79
2023/07/31 09:56:45;;;;;;;4.87;4.47;;;;;;;;;;5053329;28;20457;-77
2023/07/31 09:59:12;;;;;;;3.67;3.57;;;;;;;;;;5044329;28;20445;-77
2023/07/31 10:01:38;;;;;;;3.30;3.20;;;;;;;;;;5053806;28;20502;-77
2023/07/31 10:04:08;;;;;;;3.10;3.07;;;;;;;;;;5049876;28;21036;-77
2023/07/31 10:06:35;;;;;;;3.13;3.03;;;;;;;;;;5048446;28;20992;-78
2023/07/31 10:09:02;;;;;;;3.07;2.97;;;;;;;;;;5047618;28;20425;-77
2023/07/31 10:11:31;;;;;;;3.37;3.20;;;;;;;;;;5036062;28;20468;-78
2023/07/31 10:13:57;;;;;;;3.43;3.43;;;;;;;;;;5050631;28;20424;-76
2023/07/31 10:16:23;;;;;;;4.33;4.10;;;;;;;;;;5046590;28;21270;-78
2023/07/31 10:18:50;;;;;;;3.13;3.03;;;;;;;;;;5047305;28;20467;-77
2023/07/31 10:21:19;;;;;;;2.50;2.50;;;;;;;;;;5050776;28;20439;-77
2023/07/31 10:23:46;;;;;;;3.53;3.23;;;;;;;;;;5029573;28;20929;-77
2023/07/31 10:26:13;;;;;;;3.97;3.87;;;;;;;;;;5044131;28;20429;-77
2023/07/31 10:28:39;;;;;;;3.73;3.53;;;;;;;;;;5054144;28;20895;-76
2023/07/31 10:31:06;;;;;;;3.57;3.47;;;;;;;;;;5028250;28;20863;-77
2023/07/31 10:33:32;;;;;;;3.80;3.60;;;;;;;;;;5032482;28;20576;-76
2023/07/31 10:36:15;;;;;;;5.50;5.07;;;;;;;;;;5045152;28;20932;-77
2023/07/31 10:38:41;;;;;;;4.23;3.93;;;;;;;;;;5034203;28;20444;-75
2023/07/31 10:41:10;;;;;;;4.80;4.40;;;;;;;;;;5047857;28;20429;-76
2023/07/31 10:43:37;;;;;;;4.40;4.20;;;;;;;;;;5051785;28;20453;-77
2023/07/31 10:46:13;;;;;;;3.73;3.63;;;;;;;;;;5031350;28;20513;-76
2023/07/31 10:48:41;;;;;;;4.10;4.00;;;;;;;;;;5050282;28;20485;-77
2023/07/31 10:51:10;;;;;;;4.53;4.10;;;;;;;;;;5047233;28;20541;-76
2023/07/31 10:53:37;;;;;;;4.30;4.20;;;;;;;;;;5028717;28;20958;-77
2023/07/31 10:56:04;;;;;;;4.60;4.20;;;;;;;;;;5031351;28;20878;-77
2023/07/31 10:58:34;;;;;;;4.47;4.17;;;;;;;;;;5052141;28;20480;-77
2023/07/31 11:01:02;;;;;;;4.43;4.03;;;;;;;;;;5045321;28;20458;-76
2023/07/31 11:04:02;;;;;;;5.00;4.70;;;;;;;;;;5055859;28;20472;-75
2023/07/31 11:06:30;;;;;;;7.00;5.40;;;;;;;;;;5018378;28;20714;-75
2023/07/31 11:08:56;;;;;;;4.00;3.80;;;;;;;;;;5043897;28;20440;-77
2023/07/31 11:11:22;;;;;;;4.90;4.50;;;;;;;;;;5052737;28;20525;-76
2023/07/31 11:13:52;;;;;;;4.77;4.47;;;;;;;;;;5047688;28;20528;-76
2023/07/31 11:16:19;;;;;;;4.40;4.20;;;;;;;;;;5054694;28;20474;-77
2023/07/31 11:18:45;;;;;;;3.83;3.73;;;;;;;;;;5048485;28;20493;-76
2023/07/31 11:21:15;;;;;;;5.07;3.90;;;;;;;;;;5032364;28;20876;-77
2023/07/31 11:23:42;;;;;;;4.40;4.20;;;;;;;;;;5048590;28;20773;-77
2023/07/31 11:26:08;;;;;;;4.63;4.23;;;;;;;;;;5054428;28;20970;-77
2023/07/31 11:28:35;;;;;;;5.17;4.30;;;;;;;;;;5047330;28;20424;-76
2023/07/31 11:31:01;;;;;;;3.60;3.50;;;;;;;;;;5057173;28;20401;-77
2023/07/31 11:33:27;;;;;;;3.70;3.60;;;;;;;;;;5052631;28;20424;-77
2023/07/31 11:35:53;;;;;;;4.30;4.10;;;;;;;;;;5037462;28;20410;-77
2023/07/31 11:38:27;;;;;;;4.60;4.30;;;;;;;;;;5052354;28;20613;-76
2023/07/31 11:40:54;;;;;;;3.40;3.30;;;;;;;;;;5053962;28;20416;-76
2023/07/31 11:46:55;;;;;;;4.70;3.20;;;;;;;;;;5058062;28;20376;-76
2023/07/31 11:49:21;;;;;;;3.67;3.47;;;;;;;;;;5052988;28;20445;-76
2023/07/31 11:51:47;;;;;;;2.63;2.63;;;;;;;;;;5055469;28;21167;-77
2023/07/31 11:54:13;;;;;;;3.10;3.10;;;;;;;;;;5051406;28;20436;-76
2023/07/31 11:56:40;;;;;;;2.90;2.80;;;;;;;;;;5056784;28;20894;-77
2023/07/31 11:59:08;;;;;;;4.07;3.10;;;;;;;;;;5031103;28;20839;-76
2023/07/31 12:01:34;;;;;;;3.40;3.20;;;;;;;;;;5055239;28;20432;-76
2023/07/31 12:04:00;;;;;;;2.63;2.53;;;;;;;;;;5052668;28;20445;-77
2023/07/31 12:06:36;;;;;;;2.50;2.50;;;;;;;;;;5051983;28;20896;-77
2023/07/31 12:09:05;;;;;;;2.83;2.73;;;;;;;;;;5050128;28;20448;-76
2023/07/31 12:11:31;;;;;;;3.23;3.13;;;;;;;;;;5052518;28;21158;-76
2023/07/31 12:13:57;;;;;;;3.00;2.90;;;;;;;;;;5033850;28;20813;-77
2023/07/31 12:16:26;;;;;;;2.77;2.67;;;;;;;;;;5034266;28;20432;-74
2023/07/31 12:18:53;;;;;;;2.73;2.70;;;;;;;;;;5052428;28;20449;-75
2023/07/31 12:21:20;;;;;;;3.47;3.27;;;;;;;;;;5051024;28;20461;-77
2023/07/31 12:26:49;;;;;;;1.97;1.97;;;;;;;;;;5050370;28;20958;-76
2023/07/31 12:29:15;;;;;;;2.70;2.60;;;;;;;;;;5060948;28;20432;-74
2023/07/31 12:31:42;;;;;;;2.77;2.57;;;;;;;;;;5026229;28;20418;-76
2023/07/31 12:34:18;;;;;;;3.53;3.43;;;;;;;;;;5053882;28;21171;-77
2023/07/31 12:36:44;;;;;;;2.50;2.50;;;;;;;;;;5034870;28;21292;-76
2023/07/31 12:39:11;;;;;;;2.30;2.20;;;;;;;;;;5047038;28;20510;-75
2023/07/31 12:41:37;;;;;;;3.07;2.90;;;;;;;;;;5034493;28;20446;-76
2023/07/31 12:44:03;;;;;;;2.50;2.50;;;;;;;;;;5038191;28;20456;-76
2023/07/31 12:46:29;;;;;;;2.53;2.53;;;;;;;;;;5043418;28;20445;-76
2023/07/31 12:48:55;;;;;;;2.20;2.10;;;;;;;;;;5053490;28;20437;-77
2023/07/31 12:51:21;;;;;;;2.10;2.10;;;;;;;;;;5044625;28;20544;-76
2023/07/31 12:53:48;;;;;;;2.83;2.20;;;;;;;;;;5031148;28;20900;-77
2023/07/31 12:56:14;;;;;;;2.33;2.23;;;;;;;;;;5049798;28;20790;-76
2023/07/31 12:58:40;;;;;;;2.17;2.17;;;;;;;;;;5045102;28;20470;-77
2023/07/31 13:01:06;;;;;;;2.20;2.20;;;;;;;;;;5044874;28;20841;-76
2023/07/31 13:03:32;;;;;;;2.23;2.20;;;;;;;;;;5050638;28;20843;-76
2023/07/31 13:05:58;;;;;;;2.83;2.60;;;;;;;;;;5027629;28;20437;-76
2023/07/31 13:08:24;;;;;;;2.07;2.07;;;;;;;;;;5049261;28;20437;-77
2023/07/31 13:10:50;;;;;;;2.20;2.20;;;;;;;;;;5056389;28;20447;-75
2023/07/31 13:13:16;;;;;;;2.43;2.33;;;;;;;;;;5024318;28;20449;-76
2023/07/31 13:15:42;;;;;;;2.53;2.53;;;;;;;;;;5041844;28;20440;-75
2023/07/31 13:18:08;;;;;;;2.50;2.40;;;;;;;;;;5024550;28;20473;-77
2023/07/31 13:20:37;;;;;;;2.73;2.73;;;;;;;;;;5053924;28;20433;-77
2023/07/31 13:23:03;;;;;;;3.00;2.90;;;;;;;;;;5049145;28;20520;-76
2023/07/31 13:25:29;;;;;;;3.03;2.93;;;;;;;;;;5047844;28;20524;-78
2023/07/31 13:27:55;;;;;;;3.10;3.10;;;;;;;;;;5054091;28;20724;-78
2023/07/31 13:30:21;;;;;;;2.93;2.83;;;;;;;;;;5049432;28;20923;-80
2023/07/31 13:32:47;;;;;;;3.33;3.20;;;;;;;;;;5028009;28;21325;-79
2023/07/31 13:35:13;;;;;;;3.27;2.97;;;;;;;;;;5048797;28;20490;-77
2023/07/31 13:37:39;;;;;;;3.00;3.00;;;;;;;;;;5052758;28;21040;-76
2023/07/31 13:40:06;;;;;;;3.37;3.37;;;;;;;;;;5057403;28;20477;-76
2023/07/31 13:42:32;;;;;;;2.67;2.67;;;;;;;;;;5047827;28;20516;-78
2023/07/31 13:44:58;;;;;;;3.07;2.97;;;;;;;;;;5047780;28;20430;-78
2023/07/31 13:47:24;;;;;;;7.03;3.53;;;;;;;;;;5047229;28;20471;-76
2023/07/31 13:49:50;;;;;;;3.20;3.10;;;;;;;;;;5051914;28;21246;-76
2023/07/31 13:52:16;;;;;;;4.60;2.57;;;;;;;;;;5051025;28;20425;-77
2023/07/31 13:54:42;;;;;;;4.00;3.80;;;;;;;;;;5054428;28;20428;-77
2023/07/31 13:57:09;;;;;;;2.77;2.77;;;;;;;;;;5028388;28;20572;-77
2023/07/31 13:59:35;;;;;;;3.00;2.80;;;;;;;;;;5047599;28;20418;-77
2023/07/31 14:02:00;;;;;;;2.80;2.70;;;;;;;;;;5032393;28;21060;-77
2023/07/31 14:04:26;;;;;;;3.67;3.57;;;;;;;;;;5025584;28;20462;-77
2023/07/31 14:06:53;;;;;;;3.93;3.47;;;;;;;;;;5039953;28;20430;-75
2023/07/31 14:09:21;;;;;;;3.70;3.50;;;;;;;;;;5045579;28;20441;-75
2023/07/31 14:11:47;;;;;;;3.67;3.50;;;;;;;;;;5050219;28;20429;-77
2023/07/31 14:14:13;;;;;;;3.70;3.50;;;;;;;;;;5047316;28;20441;-75
2023/07/31 14:16:39;;;;;;;4.30;4.20;;;;;;;;;;5038357;28;20464;-75
2023/07/31 14:19:07;;;;;;;4.10;3.83;;;;;;;;;;5045518;28;20434;-76
2023/07/31 14:21:33;;;;;;;4.30;3.90;;;;;;;;;;5045650;28;20840;-76
2023/07/31 14:23:59;;;;;;;3.80;3.60;;;;;;;;;;5040323;28;21326;-75
2023/07/31 14:26:25;;;;;;;4.50;3.93;;;;;;;;;;5052038;28;20470;-75
2023/07/31 14:28:51;;;;;;;4.77;4.60;;;;;;;;;;5031434;28;20468;-77
2023/07/31 14:31:17;;;;;;;4.50;4.17;;;;;;;;;;5049530;28;20498;-75
2023/07/31 14:33:43;;;;;;;3.60;3.40;;;;;;;;;;5051237;28;20443;-77
2023/07/31 14:36:09;;;;;;;3.80;3.70;;;;;;;;;;5028000;28;20494;-76
2023/07/31 14:38:35;;;;;;;5.23;5.00;;;;;;;;;;5028569;28;20470;-76
2023/07/31 14:41:01;;;;;;;4.17;3.97;;;;;;;;;;5050732;28;20552;-75
2023/07/31 14:43:27;;;;;;;3.20;3.20;;;;;;;;;;5026522;28;20457;-77
2023/07/31 14:45:55;;;;;;;4.00;3.80;;;;;;;;;;5049243;28;20457;-75
2023/07/31 14:48:24;;;;;;;3.53;3.43;;;;;;;;;;5043510;28;20461;-74
2023/07/31 14:50:50;;;;;;;4.17;3.80;;;;;;;;;;5049044;28;20501;-75
2023/07/31 14:53:16;;;;;;;4.10;3.90;;;;;;;;;;5050572;28;20556;-74
2023/07/31 14:55:42;;;;;;;4.33;4.13;;;;;;;;;;5044709;28;20539;-75
2023/07/31 14:58:10;;;;;;;3.83;3.73;;;;;;;;;;5050301;28;20503;-74
2023/07/31 15:00:40;;;;;;;3.70;3.50;;;;;;;;;;5047635;28;20418;-73
2023/07/31 15:03:08;;;;;;;3.50;3.40;;;;;;;;;;5025892;28;20516;-74
2023/07/31 15:05:34;;;;;;;4.57;4.47;;;;;;;;;;5056238;28;20790;-75